sensor_id;sensor_type;location;lat;lon;timestamp;temperature;humidity
20590;DHT22;10453;50.810;12.540;2022-09-09T00:03:17;13.00;99.90
20590;DHT22;10453;50.810;12.540;2022-09-09T00:07:45;12.90;99.90
20590;DHT22;10453;50.810;12.540;2022-09-09T00:12:22;12.80;99.90
20590;DHT22;10453;50.810;12.540;2022-09-09T00:16:44;12.60;99.90
20590;DHT22;10453;50.810;12.540;2022-09-09T00:21:15;12.50;99.90
20590;DHT22;10453;50.810;12.540;2022-09-09T00:25:40;12.40;99.90
20590;DHT22;10453;50.810;12.540;2022-09-09T00:30:14;12.40;99.90
20590;DHT22;10453;50.810;12.540;2022-09-09T00:34:36;12.20;99.90
20590;DHT22;10453;50.810;12.540;2022-09-09T00:38:58;12.20;99.90
20590;DHT22;10453;50.810;12.540;2022-09-09T00:43:31;12.20;99.90
20590;DHT22;10453;50.810;12.540;2022-09-09T00:47:53;12.10;99.90
20590;DHT22;10453;50.810;12.540;2022-09-09T00:56:47;12.00;99.90
20590;DHT22;10453;50.810;12.540;2022-09-09T01:01:10;12.00;99.90
20590;DHT22;10453;50.810;12.540;2022-09-09T01:10:24;12.00;99.90
20590;DHT22;10453;50.810;12.540;2022-09-09T01:14:49;11.90;99.90
20590;DHT22;10453;50.810;12.540;2022-09-09T01:19:10;11.90;99.90
20590;DHT22;10453;50.810;12.540;2022-09-09T01:28:19;12.00;99.90
20590;DHT22;10453;50.810;12.540;2022-09-09T01:32:46;11.90;99.90
20590;DHT22;10453;50.810;12.540;2022-09-09T01:37:12;12.00;99.90
20590;DHT22;10453;50.810;12.540;2022-09-09T01:41:30;11.80;99.90
20590;DHT22;10453;50.810;12.540;2022-09-09T01:45:49;11.90;99.90
20590;DHT22;10453;50.810;12.540;2022-09-09T01:50:10;11.90;99.90
20590;DHT22;10453;50.810;12.540;2022-09-09T01:54:31;11.90;99.90
20590;DHT22;10453;50.810;12.540;2022-09-09T02:03:47;11.80;99.90
20590;DHT22;10453;50.810;12.540;2022-09-09T02:08:10;11.70;99.90
20590;DHT22;10453;50.810;12.540;2022-09-09T02:12:29;11.80;99.90
20590;DHT22;10453;50.810;12.540;2022-09-09T02:16:48;11.80;99.90
20590;DHT22;10453;50.810;12.540;2022-09-09T02:21:07;11.70;99.90
20590;DHT22;10453;50.810;12.540;2022-09-09T02:25:29;11.70;99.90
20590;DHT22;10453;50.810;12.540;2022-09-09T02:29:47;11.60;99.90
20590;DHT22;10453;50.810;12.540;2022-09-09T02:34:07;11.60;99.90
20590;DHT22;10453;50.810;12.540;2022-09-09T02:38:29;11.60;99.90
20590;DHT22;10453;50.810;12.540;2022-09-09T02:42:49;11.70;99.90
20590;DHT22;10453;50.810;12.540;2022-09-09T02:47:35;11.70;99.90
20590;DHT22;10453;50.810;12.540;2022-09-09T02:52:01;11.70;99.90
20590;DHT22;10453;50.810;12.540;2022-09-09T02:56:23;11.80;99.90
20590;DHT22;10453;50.810;12.540;2022-09-09T03:00:45;11.90;99.90
20590;DHT22;10453;50.810;12.540;2022-09-09T03:05:02;11.90;99.90
20590;DHT22;10453;50.810;12.540;2022-09-09T03:09:20;11.90;99.90
20590;DHT22;10453;50.810;12.540;2022-09-09T03:13:37;11.80;99.90
20590;DHT22;10453;50.810;12.540;2022-09-09T03:17:55;11.80;99.90
20590;DHT22;10453;50.810;12.540;2022-09-09T03:22:13;11.70;99.90
20590;DHT22;10453;50.810;12.540;2022-09-09T03:26:31;11.80;99.90
20590;DHT22;10453;50.810;12.540;2022-09-09T03:30:48;11.70;99.90
20590;DHT22;10453;50.810;12.540;2022-09-09T03:35:06;11.80;99.90
20590;DHT22;10453;50.810;12.540;2022-09-09T03:39:23;11.80;99.90
20590;DHT22;10453;50.810;12.540;2022-09-09T03:43:41;11.80;99.90
20590;DHT22;10453;50.810;12.540;2022-09-09T03:47:58;11.80;99.90
20590;DHT22;10453;50.810;12.540;2022-09-09T03:52:17;11.80;99.90
20590;DHT22;10453;50.810;12.540;2022-09-09T03:56:39;11.80;99.90
20590;DHT22;10453;50.810;12.540;2022-09-09T04:00:59;11.90;99.90
20590;DHT22;10453;50.810;12.540;2022-09-09T04:05:16;12.00;99.90
20590;DHT22;10453;50.810;12.540;2022-09-09T04:09:33;12.10;99.90
20590;DHT22;10453;50.810;12.540;2022-09-09T04:13:51;12.30;99.90
20590;DHT22;10453;50.810;12.540;2022-09-09T04:18:09;12.40;99.90
20590;DHT22;10453;50.810;12.540;2022-09-09T04:22:26;12.30;99.90
20590;DHT22;10453;50.810;12.540;2022-09-09T04:26:43;12.40;99.90
20590;DHT22;10453;50.810;12.540;2022-09-09T04:31:16;12.50;99.90
20590;DHT22;10453;50.810;12.540;2022-09-09T04:35:35;12.80;99.90
20590;DHT22;10453;50.810;12.540;2022-09-09T04:39:52;13.10;99.90
20590;DHT22;10453;50.810;12.540;2022-09-09T04:44:09;13.10;99.90
20590;DHT22;10453;50.810;12.540;2022-09-09T04:48:27;13.30;99.90
20590;DHT22;10453;50.810;12.540;2022-09-09T04:52:44;13.40;99.90
20590;DHT22;10453;50.810;12.540;2022-09-09T04:57:02;13.50;99.90
20590;DHT22;10453;50.810;12.540;2022-09-09T05:01:21;13.50;99.90
20590;DHT22;10453;50.810;12.540;2022-09-09T05:05:39;13.60;99.90
20590;DHT22;10453;50.810;12.540;2022-09-09T05:09:56;13.60;99.90
20590;DHT22;10453;50.810;12.540;2022-09-09T05:14:13;13.60;99.90
20590;DHT22;10453;50.810;12.540;2022-09-09T05:18:31;13.60;99.90
20590;DHT22;10453;50.810;12.540;2022-09-09T05:22:55;13.50;99.90
20590;DHT22;10453;50.810;12.540;2022-09-09T05:27:13;13.70;99.90
20590;DHT22;10453;50.810;12.540;2022-09-09T05:31:30;13.90;99.90
20590;DHT22;10453;50.810;12.540;2022-09-09T05:35:48;14.10;99.90
20590;DHT22;10453;50.810;12.540;2022-09-09T05:40:11;14.20;99.90
20590;DHT22;10453;50.810;12.540;2022-09-09T05:44:29;14.40;99.90
20590;DHT22;10453;50.810;12.540;2022-09-09T05:48:47;14.50;99.90
20590;DHT22;10453;50.810;12.540;2022-09-09T05:53:05;14.70;99.90
20590;DHT22;10453;50.810;12.540;2022-09-09T05:57:22;15.00;99.90
20590;DHT22;10453;50.810;12.540;2022-09-09T06:01:39;15.20;99.90
20590;DHT22;10453;50.810;12.540;2022-09-09T06:06:02;15.40;99.90
20590;DHT22;10453;50.810;12.540;2022-09-09T06:10:22;15.70;99.90
20590;DHT22;10453;50.810;12.540;2022-09-09T06:14:39;15.90;99.90
20590;DHT22;10453;50.810;12.540;2022-09-09T06:19:02;15.80;99.90
20590;DHT22;10453;50.810;12.540;2022-09-09T06:23:20;15.90;99.90
20590;DHT22;10453;50.810;12.540;2022-09-09T06:27:37;16.10;99.90
20590;DHT22;10453;50.810;12.540;2022-09-09T06:31:54;16.10;99.90
20590;DHT22;10453;50.810;12.540;2022-09-09T06:36:14;16.40;99.90
20590;DHT22;10453;50.810;12.540;2022-09-09T06:40:34;16.60;99.90
20590;DHT22;10453;50.810;12.540;2022-09-09T06:44:52;16.70;99.90
20590;DHT22;10453;50.810;12.540;2022-09-09T06:49:09;16.60;99.90
20590;DHT22;10453;50.810;12.540;2022-09-09T06:53:26;16.80;99.90
20590;DHT22;10453;50.810;12.540;2022-09-09T06:57:44;17.00;99.90
20590;DHT22;10453;50.810;12.540;2022-09-09T07:02:01;17.30;99.90
20590;DHT22;10453;50.810;12.540;2022-09-09T07:06:24;17.70;99.90
20590;DHT22;10453;50.810;12.540;2022-09-09T07:10:41;18.00;99.90
20590;DHT22;10453;50.810;12.540;2022-09-09T07:15:00;17.90;99.90
20590;DHT22;10453;50.810;12.540;2022-09-09T07:19:17;17.70;99.90
20590;DHT22;10453;50.810;12.540;2022-09-09T07:23:34;17.50;99.90
20590;DHT22;10453;50.810;12.540;2022-09-09T07:27:56;17.20;99.90
20590;DHT22;10453;50.810;12.540;2022-09-09T07:32:13;16.80;99.90
20590;DHT22;10453;50.810;12.540;2022-09-09T07:36:32;16.20;99.90
20590;DHT22;10453;50.810;12.540;2022-09-09T07:40:50;16.20;99.90
20590;DHT22;10453;50.810;12.540;2022-09-09T07:45:07;16.30;99.90
20590;DHT22;10453;50.810;12.540;2022-09-09T07:49:24;16.30;99.90
20590;DHT22;10453;50.810;12.540;2022-09-09T07:53:51;16.50;99.90
20590;DHT22;10453;50.810;12.540;2022-09-09T07:58:08;16.80;99.90
20590;DHT22;10453;50.810;12.540;2022-09-09T08:02:26;17.20;99.90
20590;DHT22;10453;50.810;12.540;2022-09-09T08:06:49;17.20;99.90
20590;DHT22;10453;50.810;12.540;2022-09-09T08:11:12;17.70;99.90
20590;DHT22;10453;50.810;12.540;2022-09-09T08:15:29;18.50;99.90
20590;DHT22;10453;50.810;12.540;2022-09-09T08:19:48;18.80;99.90
20590;DHT22;10453;50.810;12.540;2022-09-09T08:24:06;19.00;99.90
20590;DHT22;10453;50.810;12.540;2022-09-09T08:28:23;19.40;99.90
20590;DHT22;10453;50.810;12.540;2022-09-09T08:32:41;19.20;99.90
20590;DHT22;10453;50.810;12.540;2022-09-09T08:37:02;18.80;99.90
20590;DHT22;10453;50.810;12.540;2022-09-09T08:46:25;18.60;99.90
20590;DHT22;10453;50.810;12.540;2022-09-09T08:50:49;18.80;99.90
20590;DHT22;10453;50.810;12.540;2022-09-09T08:55:24;19.00;99.90
20590;DHT22;10453;50.810;12.540;2022-09-09T08:59:42;20.00;99.90
20590;DHT22;10453;50.810;12.540;2022-09-09T09:04:22;21.10;99.90
20590;DHT22;10453;50.810;12.540;2022-09-09T09:08:52;21.40;99.90
20590;DHT22;10453;50.810;12.540;2022-09-09T09:17:37;21.30;99.90
20590;DHT22;10453;50.810;12.540;2022-09-09T09:22:20;21.50;99.90
20590;DHT22;10453;50.810;12.540;2022-09-09T09:26:39;21.60;99.90
20590;DHT22;10453;50.810;12.540;2022-09-09T09:31:10;21.00;99.90
20590;DHT22;10453;50.810;12.540;2022-09-09T09:35:27;21.20;99.90
20590;DHT22;10453;50.810;12.540;2022-09-09T09:39:45;22.80;99.90
20590;DHT22;10453;50.810;12.540;2022-09-09T09:44:26;24.00;99.90
20590;DHT22;10453;50.810;12.540;2022-09-09T09:48:44;24.30;99.90
20590;DHT22;10453;50.810;12.540;2022-09-09T09:53:04;24.40;99.90
20590;DHT22;10453;50.810;12.540;2022-09-09T09:57:29;25.10;99.90
20590;DHT22;10453;50.810;12.540;2022-09-09T10:01:48;24.80;99.10
20590;DHT22;10453;50.810;12.540;2022-09-09T10:06:05;24.50;96.90
20590;DHT22;10453;50.810;12.540;2022-09-09T10:10:31;25.30;95.80
20590;DHT22;10453;50.810;12.540;2022-09-09T10:15:02;25.00;93.60
20590;DHT22;10453;50.810;12.540;2022-09-09T10:19:34;25.10;93.80
20590;DHT22;10453;50.810;12.540;2022-09-09T10:34:01;25.80;91.00
20590;DHT22;10453;50.810;12.540;2022-09-09T10:43:00;26.80;83.80
20590;DHT22;10453;50.810;12.540;2022-09-09T10:56:56;23.70;94.20
20590;DHT22;10453;50.810;12.540;2022-09-09T11:01:22;25.90;91.80
20590;DHT22;10453;50.810;12.540;2022-09-09T11:05:46;26.30;84.50
20590;DHT22;10453;50.810;12.540;2022-09-09T11:10:13;26.50;85.50
20590;DHT22;10453;50.810;12.540;2022-09-09T11:14:41;26.10;79.60
20590;DHT22;10453;50.810;12.540;2022-09-09T11:19:05;27.10;84.00
20590;DHT22;10453;50.810;12.540;2022-09-09T11:23:52;26.10;84.40
20590;DHT22;10453;50.810;12.540;2022-09-09T11:28:32;26.50;76.10
20590;DHT22;10453;50.810;12.540;2022-09-09T11:33:22;26.50;78.10
20590;DHT22;10453;50.810;12.540;2022-09-09T11:42:29;26.50;79.80
20590;DHT22;10453;50.810;12.540;2022-09-09T11:46:50;27.00;75.40
20590;DHT22;10453;50.810;12.540;2022-09-09T11:51:13;27.00;74.80
20590;DHT22;10453;50.810;12.540;2022-09-09T11:55:34;27.40;72.20
20590;DHT22;10453;50.810;12.540;2022-09-09T11:59:53;27.00;72.80
20590;DHT22;10453;50.810;12.540;2022-09-09T12:04:18;25.60;77.90
20590;DHT22;10453;50.810;12.540;2022-09-09T12:08:42;25.40;75.10
20590;DHT22;10453;50.810;12.540;2022-09-09T12:13:20;25.60;75.10
20590;DHT22;10453;50.810;12.540;2022-09-09T12:17:48;26.80;71.80
20590;DHT22;10453;50.810;12.540;2022-09-09T12:26:43;26.90;70.30
20590;DHT22;10453;50.810;12.540;2022-09-09T12:31:12;28.00;72.60
20590;DHT22;10453;50.810;12.540;2022-09-09T12:35:35;27.70;70.00
20590;DHT22;10453;50.810;12.540;2022-09-09T12:39:57;27.70;68.00
20590;DHT22;10453;50.810;12.540;2022-09-09T12:44:16;27.60;69.80
20590;DHT22;10453;50.810;12.540;2022-09-09T12:48:39;27.40;64.80
20590;DHT22;10453;50.810;12.540;2022-09-09T12:53:06;26.90;71.30
20590;DHT22;10453;50.810;12.540;2022-09-09T12:57:25;27.10;69.40
20590;DHT22;10453;50.810;12.540;2022-09-09T13:01:43;28.50;68.30
20590;DHT22;10453;50.810;12.540;2022-09-09T13:06:21;28.80;68.60
20590;DHT22;10453;50.810;12.540;2022-09-09T13:10:54;27.90;62.60
20590;DHT22;10453;50.810;12.540;2022-09-09T13:15:22;27.70;62.00
20590;DHT22;10453;50.810;12.540;2022-09-09T13:19:44;27.50;66.50
20590;DHT22;10453;50.810;12.540;2022-09-09T13:24:04;28.30;65.80
20590;DHT22;10453;50.810;12.540;2022-09-09T13:28:29;28.70;63.90
20590;DHT22;10453;50.810;12.540;2022-09-09T13:33:29;27.90;67.00
20590;DHT22;10453;50.810;12.540;2022-09-09T13:37:47;28.20;63.10
20590;DHT22;10453;50.810;12.540;2022-09-09T13:42:04;28.20;63.20
20590;DHT22;10453;50.810;12.540;2022-09-09T13:46:29;25.30;63.50
20590;DHT22;10453;50.810;12.540;2022-09-09T13:50:58;23.30;68.40
20590;DHT22;10453;50.810;12.540;2022-09-09T13:55:16;22.70;73.50
20590;DHT22;10453;50.810;12.540;2022-09-09T13:59:33;22.70;74.00
20590;DHT22;10453;50.810;12.540;2022-09-09T14:04:11;22.70;73.50
20590;DHT22;10453;50.810;12.540;2022-09-09T14:08:29;22.60;71.90
20590;DHT22;10453;50.810;12.540;2022-09-09T14:12:54;22.30;73.70
20590;DHT22;10453;50.810;12.540;2022-09-09T14:17:11;22.20;76.00
20590;DHT22;10453;50.810;12.540;2022-09-09T14:21:28;21.90;76.40
20590;DHT22;10453;50.810;12.540;2022-09-09T14:25:45;21.70;81.00
20590;DHT22;10453;50.810;12.540;2022-09-09T14:30:03;21.70;80.40
20590;DHT22;10453;50.810;12.540;2022-09-09T14:34:21;21.70;79.30
20590;DHT22;10453;50.810;12.540;2022-09-09T14:38:38;21.70;82.00
20590;DHT22;10453;50.810;12.540;2022-09-09T14:42:59;21.60;83.20
20590;DHT22;10453;50.810;12.540;2022-09-09T14:47:16;21.30;80.40
20590;DHT22;10453;50.810;12.540;2022-09-09T14:51:34;21.00;80.60
20590;DHT22;10453;50.810;12.540;2022-09-09T14:55:51;20.90;79.20
20590;DHT22;10453;50.810;12.540;2022-09-09T15:00:09;20.70;83.70
20590;DHT22;10453;50.810;12.540;2022-09-09T15:04:27;20.60;85.60
20590;DHT22;10453;50.810;12.540;2022-09-09T15:08:45;20.50;88.30
20590;DHT22;10453;50.810;12.540;2022-09-09T15:13:03;20.60;91.50
20590;DHT22;10453;50.810;12.540;2022-09-09T15:17:20;20.50;93.90
20590;DHT22;10453;50.810;12.540;2022-09-09T15:21:37;20.00;98.30
20590;DHT22;10453;50.810;12.540;2022-09-09T15:25:55;19.70;99.90
20590;DHT22;10453;50.810;12.540;2022-09-09T15:30:14;19.50;99.90
20590;DHT22;10453;50.810;12.540;2022-09-09T15:34:31;19.50;99.90
20590;DHT22;10453;50.810;12.540;2022-09-09T15:38:49;20.00;99.90
20590;DHT22;10453;50.810;12.540;2022-09-09T15:43:07;19.90;99.90
20590;DHT22;10453;50.810;12.540;2022-09-09T15:47:26;20.00;99.90
20590;DHT22;10453;50.810;12.540;2022-09-09T15:51:46;19.50;99.90
20590;DHT22;10453;50.810;12.540;2022-09-09T15:56:04;19.40;99.90
20590;DHT22;10453;50.810;12.540;2022-09-09T16:00:21;19.50;99.90
20590;DHT22;10453;50.810;12.540;2022-09-09T16:04:40;19.50;99.90
20590;DHT22;10453;50.810;12.540;2022-09-09T16:08:58;19.40;99.90
20590;DHT22;10453;50.810;12.540;2022-09-09T16:13:16;19.30;99.90
20590;DHT22;10453;50.810;12.540;2022-09-09T16:17:34;19.20;99.90
20590;DHT22;10453;50.810;12.540;2022-09-09T16:21:54;19.20;99.90
20590;DHT22;10453;50.810;12.540;2022-09-09T16:26:13;19.20;99.90
20590;DHT22;10453;50.810;12.540;2022-09-09T16:30:30;19.10;99.90
20590;DHT22;10453;50.810;12.540;2022-09-09T16:34:47;19.00;99.90
20590;DHT22;10453;50.810;12.540;2022-09-09T16:39:07;18.90;99.90
20590;DHT22;10453;50.810;12.540;2022-09-09T16:43:26;18.90;99.90
20590;DHT22;10453;50.810;12.540;2022-09-09T16:47:43;18.80;99.90
20590;DHT22;10453;50.810;12.540;2022-09-09T16:52:01;18.70;99.90
20590;DHT22;10453;50.810;12.540;2022-09-09T16:56:21;18.60;99.90
20590;DHT22;10453;50.810;12.540;2022-09-09T17:00:38;18.40;99.90
20590;DHT22;10453;50.810;12.540;2022-09-09T17:04:56;18.30;99.90
20590;DHT22;10453;50.810;12.540;2022-09-09T17:09:13;18.20;99.90
20590;DHT22;10453;50.810;12.540;2022-09-09T17:13:31;18.10;99.90
20590;DHT22;10453;50.810;12.540;2022-09-09T17:17:49;17.90;99.90
20590;DHT22;10453;50.810;12.540;2022-09-09T17:22:06;17.80;99.90
20590;DHT22;10453;50.810;12.540;2022-09-09T17:26:39;17.80;99.90
20590;DHT22;10453;50.810;12.540;2022-09-09T17:30:58;17.70;99.90
20590;DHT22;10453;50.810;12.540;2022-09-09T17:35:18;17.60;99.90
20590;DHT22;10453;50.810;12.540;2022-09-09T17:39:35;17.40;99.90
20590;DHT22;10453;50.810;12.540;2022-09-09T17:43:53;17.30;99.90
20590;DHT22;10453;50.810;12.540;2022-09-09T17:48:11;17.20;99.90
20590;DHT22;10453;50.810;12.540;2022-09-09T17:52:28;16.90;99.90
20590;DHT22;10453;50.810;12.540;2022-09-09T17:56:47;16.70;99.90
20590;DHT22;10453;50.810;12.540;2022-09-09T18:01:10;16.60;99.90
20590;DHT22;10453;50.810;12.540;2022-09-09T18:05:29;16.50;99.90
20590;DHT22;10453;50.810;12.540;2022-09-09T18:09:46;16.40;99.90
20590;DHT22;10453;50.810;12.540;2022-09-09T18:14:04;16.20;99.90
20590;DHT22;10453;50.810;12.540;2022-09-09T18:18:22;15.90;99.90
20590;DHT22;10453;50.810;12.540;2022-09-09T18:22:39;15.80;99.90
20590;DHT22;10453;50.810;12.540;2022-09-09T18:26:56;15.70;99.90
20590;DHT22;10453;50.810;12.540;2022-09-09T18:31:15;15.80;99.90
20590;DHT22;10453;50.810;12.540;2022-09-09T18:35:35;15.70;99.90
20590;DHT22;10453;50.810;12.540;2022-09-09T18:39:53;15.60;99.90
20590;DHT22;10453;50.810;12.540;2022-09-09T18:44:14;15.40;99.90
20590;DHT22;10453;50.810;12.540;2022-09-09T18:48:37;15.40;99.90
20590;DHT22;10453;50.810;12.540;2022-09-09T18:52:54;15.40;99.90
20590;DHT22;10453;50.810;12.540;2022-09-09T18:57:11;15.50;99.90
20590;DHT22;10453;50.810;12.540;2022-09-09T19:01:29;15.70;99.90
20590;DHT22;10453;50.810;12.540;2022-09-09T19:05:46;15.70;99.90
20590;DHT22;10453;50.810;12.540;2022-09-09T19:10:03;15.70;99.90
20590;DHT22;10453;50.810;12.540;2022-09-09T19:14:21;15.70;99.90
20590;DHT22;10453;50.810;12.540;2022-09-09T19:18:39;15.60;99.90
20590;DHT22;10453;50.810;12.540;2022-09-09T19:22:56;15.40;99.90
20590;DHT22;10453;50.810;12.540;2022-09-09T19:27:14;15.20;99.90
20590;DHT22;10453;50.810;12.540;2022-09-09T19:31:31;15.20;99.90
20590;DHT22;10453;50.810;12.540;2022-09-09T19:35:59;15.30;99.90
20590;DHT22;10453;50.810;12.540;2022-09-09T19:40:20;15.50;99.90
20590;DHT22;10453;50.810;12.540;2022-09-09T19:44:38;15.70;99.90
20590;DHT22;10453;50.810;12.540;2022-09-09T19:48:57;15.80;99.90
20590;DHT22;10453;50.810;12.540;2022-09-09T19:53:14;15.80;99.90
20590;DHT22;10453;50.810;12.540;2022-09-09T19:57:31;15.90;99.90
20590;DHT22;10453;50.810;12.540;2022-09-09T20:01:48;16.00;99.90
20590;DHT22;10453;50.810;12.540;2022-09-09T20:06:08;16.10;99.90
20590;DHT22;10453;50.810;12.540;2022-09-09T20:10:26;16.00;99.90
20590;DHT22;10453;50.810;12.540;2022-09-09T20:14:43;16.00;99.90
20590;DHT22;10453;50.810;12.540;2022-09-09T20:19:02;15.90;99.90
20590;DHT22;10453;50.810;12.540;2022-09-09T20:23:19;16.00;99.90
20590;DHT22;10453;50.810;12.540;2022-09-09T20:27:37;15.90;99.90
20590;DHT22;10453;50.810;12.540;2022-09-09T20:31:54;15.80;99.90
20590;DHT22;10453;50.810;12.540;2022-09-09T20:36:23;15.80;99.90
20590;DHT22;10453;50.810;12.540;2022-09-09T20:40:42;15.80;99.90
20590;DHT22;10453;50.810;12.540;2022-09-09T20:44:59;15.80;99.90
20590;DHT22;10453;50.810;12.540;2022-09-09T20:49:19;15.80;99.90
20590;DHT22;10453;50.810;12.540;2022-09-09T20:53:36;15.80;99.90
20590;DHT22;10453;50.810;12.540;2022-09-09T20:57:55;15.80;99.90
20590;DHT22;10453;50.810;12.540;2022-09-09T21:02:13;15.80;99.90
20590;DHT22;10453;50.810;12.540;2022-09-09T21:06:30;15.90;99.90
20590;DHT22;10453;50.810;12.540;2022-09-09T21:10:47;15.80;99.90
20590;DHT22;10453;50.810;12.540;2022-09-09T21:15:05;15.80;99.90
20590;DHT22;10453;50.810;12.540;2022-09-09T21:19:23;15.70;99.90
20590;DHT22;10453;50.810;12.540;2022-09-09T21:23:40;15.60;99.90
20590;DHT22;10453;50.810;12.540;2022-09-09T21:27:58;15.50;99.90
20590;DHT22;10453;50.810;12.540;2022-09-09T21:32:15;15.50;99.90
20590;DHT22;10453;50.810;12.540;2022-09-09T21:36:34;15.40;99.90
20590;DHT22;10453;50.810;12.540;2022-09-09T21:40:51;15.40;99.90
20590;DHT22;10453;50.810;12.540;2022-09-09T21:45:09;15.20;99.90
20590;DHT22;10453;50.810;12.540;2022-09-09T21:49:27;15.30;99.90
20590;DHT22;10453;50.810;12.540;2022-09-09T21:53:44;15.20;99.90
20590;DHT22;10453;50.810;12.540;2022-09-09T21:58:03;15.20;99.90
20590;DHT22;10453;50.810;12.540;2022-09-09T22:02:20;15.20;99.90
20590;DHT22;10453;50.810;12.540;2022-09-09T22:06:38;15.10;99.90
20590;DHT22;10453;50.810;12.540;2022-09-09T22:10:55;15.10;99.90
20590;DHT22;10453;50.810;12.540;2022-09-09T22:15:13;15.10;99.90
20590;DHT22;10453;50.810;12.540;2022-09-09T22:19:31;15.00;99.90
20590;DHT22;10453;50.810;12.540;2022-09-09T22:23:56;15.00;99.90
20590;DHT22;10453;50.810;12.540;2022-09-09T22:28:13;14.90;99.90
20590;DHT22;10453;50.810;12.540;2022-09-09T22:32:31;14.80;99.90
20590;DHT22;10453;50.810;12.540;2022-09-09T22:36:48;14.80;99.90
20590;DHT22;10453;50.810;12.540;2022-09-09T22:41:07;14.80;99.90
20590;DHT22;10453;50.810;12.540;2022-09-09T22:45:24;14.80;99.90
20590;DHT22;10453;50.810;12.540;2022-09-09T22:49:41;14.70;99.90
20590;DHT22;10453;50.810;12.540;2022-09-09T22:53:58;14.70;99.90
20590;DHT22;10453;50.810;12.540;2022-09-09T22:58:15;14.80;99.90
20590;DHT22;10453;50.810;12.540;2022-09-09T23:02:32;14.70;99.90
20590;DHT22;10453;50.810;12.540;2022-09-09T23:06:56;14.50;99.90
20590;DHT22;10453;50.810;12.540;2022-09-09T23:11:13;14.50;99.90
20590;DHT22;10453;50.810;12.540;2022-09-09T23:15:31;14.60;99.90
20590;DHT22;10453;50.810;12.540;2022-09-09T23:19:48;14.80;99.90
20590;DHT22;10453;50.810;12.540;2022-09-09T23:24:14;14.70;99.90
20590;DHT22;10453;50.810;12.540;2022-09-09T23:28:32;14.80;99.90
20590;DHT22;10453;50.810;12.540;2022-09-09T23:32:51;14.80;99.90
20590;DHT22;10453;50.810;12.540;2022-09-09T23:37:08;14.80;99.90
20590;DHT22;10453;50.810;12.540;2022-09-09T23:41:27;14.80;99.90
20590;DHT22;10453;50.810;12.540;2022-09-09T23:45:44;14.70;99.90
20590;DHT22;10453;50.810;12.540;2022-09-09T23:50:01;14.60;99.90
20590;DHT22;10453;50.810;12.540;2022-09-09T23:54:18;14.50;99.90
20590;DHT22;10453;50.810;12.540;2022-09-09T23:58:36;14.50;99.90
